Time;durP1;ratioP1;P1;durP2;ratioP2;P2;SDS_P1;SDS_P2;PMS_P1;PMS_P2;Temp;Humidity;BMP_temperature;BMP_pressure;BME280_temperature;BME280_humidity;BME280_pressure;Samples;Min_cycle;Max_cycle;Signal;HPM_P1;HPM_P2
2023/06/29 00:01:27;;;;;;;43.42;36.50;;;18.60;99.90;;;;;;4992261;28;20054;-85
2023/06/29 00:03:52;;;;;;;43.67;32.53;;;18.60;99.90;;;;;;4996125;28;20341;-85
2023/06/29 00:06:18;;;;;;;40.72;34.63;;;18.50;99.90;;;;;;4980539;28;20104;-85
2023/06/29 00:08:44;;;;;;;44.97;33.90;;;18.50;99.90;;;;;;4980284;28;20033;-85
2023/06/29 00:11:09;;;;;;;47.88;35.00;;;18.50;99.90;;;;;;4996718;28;20111;-86
2023/06/29 00:13:35;;;;;;;48.30;33.78;;;18.50;99.90;;;;;;4980001;28;20049;-86
2023/06/29 00:16:01;;;;;;;43.03;35.80;;;18.50;99.90;;;;;;4995858;28;20049;-86
2023/06/29 00:18:32;;;;;;;44.03;34.58;;;18.50;99.90;;;;;;5012905;28;20538;-86
2023/06/29 00:20:58;;;;;;;48.28;36.15;;;18.50;99.90;;;;;;4996763;28;20041;-86
2023/06/29 00:23:24;;;;;;;43.60;34.33;;;18.50;99.90;;;;;;5013650;28;20042;-84
2023/06/29 00:25:52;;;;;;;47.63;36.00;;;18.50;99.90;;;;;;4980390;28;20132;-86
2023/06/29 00:28:18;;;;;;;43.65;36.90;;;18.50;99.90;;;;;;4995607;28;20045;-86
2023/06/29 00:30:43;;;;;;;47.33;35.58;;;18.50;99.90;;;;;;4995704;28;20037;-86
2023/06/29 00:33:09;;;;;;;48.97;37.95;;;18.50;99.90;;;;;;4995773;28;20049;-86
2023/06/29 00:35:35;;;;;;;42.47;35.70;;;18.50;99.90;;;;;;4979921;28;20080;-86
2023/06/29 00:38:00;;;;;;;52.67;38.72;;;18.50;99.90;;;;;;4978871;28;20038;-85
2023/06/29 00:40:26;;;;;;;46.67;39.47;;;18.50;99.90;;;;;;4994857;28;20038;-85
2023/06/29 00:42:52;;;;;;;47.08;36.55;;;18.40;99.90;;;;;;5012987;28;20080;-85
2023/06/29 00:45:18;;;;;;;50.72;39.92;;;18.50;99.90;;;;;;4978866;28;20073;-85
2023/06/29 00:47:44;;;;;;;47.35;39.20;;;18.40;99.90;;;;;;4979842;28;20034;-86
2023/06/29 00:50:10;;;;;;;47.47;37.00;;;18.40;99.90;;;;;;4995085;28;20180;-86
2023/06/29 00:52:36;;;;;;;43.33;34.53;;;18.50;99.90;;;;;;4978559;28;20044;-85
2023/06/29 00:55:03;;;;;;;42.00;34.80;;;18.50;99.90;;;;;;4979050;28;20034;-86
2023/06/29 00:57:29;;;;;;;44.67;36.40;;;18.50;99.90;;;;;;4994365;28;20403;-86
2023/06/29 00:59:59;;;;;;;45.88;38.72;;;18.50;99.90;;;;;;5012600;28;20041;-86
2023/06/29 01:02:26;;;;;;;44.50;38.72;;;18.50;99.90;;;;;;4978712;28;20123;-86
2023/06/29 01:04:52;;;;;;;43.03;32.13;;;18.40;99.90;;;;;;4994925;28;20046;-86
2023/06/29 01:07:35;;;;;;;46.50;38.47;;;18.50;99.90;;;;;;4994648;28;20052;-86
2023/06/29 01:10:01;;;;;;;48.75;37.78;;;18.50;99.90;;;;;;4994911;28;20050;-86
2023/06/29 01:12:26;;;;;;;44.40;34.30;;;18.50;99.90;;;;;;4978613;28;20249;-86
2023/06/29 01:14:55;;;;;;;46.63;38.63;;;18.40;99.90;;;;;;5012925;28;20546;-85
2023/06/29 01:17:23;;;;;;;44.08;35.10;;;18.50;99.90;;;;;;4979696;28;20125;-85
2023/06/29 01:19:51;;;;;;;45.97;35.95;;;18.40;99.90;;;;;;4994978;28;20038;-85
2023/06/29 01:22:31;;;;;;;49.72;37.47;;;18.40;99.90;;;;;;5011691;28;20087;-85
2023/06/29 01:25:01;;;;;;;46.97;36.80;;;18.40;99.90;;;;;;5012257;28;20050;-85
2023/06/29 01:27:27;;;;;;;45.80;36.95;;;18.40;99.90;;;;;;4978364;28;20369;-85
2023/06/29 01:29:55;;;;;;;48.90;38.15;;;18.40;99.90;;;;;;5012384;28;20042;-86
2023/06/29 01:32:21;;;;;;;48.78;37.35;;;18.40;99.90;;;;;;4995146;28;20042;-86
2023/06/29 01:34:47;;;;;;;46.95;36.22;;;18.40;99.90;;;;;;4994156;28;20029;-86
2023/06/29 01:37:23;;;;;;;49.80;38.33;;;18.40;99.90;;;;;;4994338;28;20034;-86
2023/06/29 01:39:58;;;;;;;43.92;36.60;;;18.40;99.90;;;;;;4993658;28;20034;-86
2023/06/29 01:42:25;;;;;;;51.92;39.42;;;18.40;99.90;;;;;;4995085;28;20044;-85
2023/06/29 01:44:54;;;;;;;50.00;37.88;;;18.30;99.90;;;;;;4994685;28;20058;-85
2023/06/29 01:47:21;;;;;;;46.58;35.85;;;18.30;99.90;;;;;;5011705;28;20045;-84
2023/06/29 01:49:48;;;;;;;43.92;33.72;;;18.30;99.90;;;;;;5012157;28;20193;-85
2023/06/29 01:52:14;;;;;;;44.72;33.85;;;18.30;99.90;;;;;;4994009;28;20104;-86
2023/06/29 01:54:40;;;;;;;40.63;32.88;;;18.40;99.90;;;;;;4994119;28;20056;-84
2023/06/29 01:57:06;;;;;;;44.88;34.67;;;18.30;99.90;;;;;;4994764;28;20105;-86
2023/06/29 01:59:32;;;;;;;43.05;37.05;;;18.30;99.90;;;;;;4994612;28;20041;-85
2023/06/29 02:01:57;;;;;;;48.55;36.53;;;18.30;99.90;;;;;;4993814;28;20049;-85
2023/06/29 02:04:23;;;;;;;48.15;36.20;;;18.40;99.90;;;;;;5011101;28;20042;-86
2023/06/29 02:06:49;;;;;;;48.85;38.88;;;18.20;99.90;;;;;;4993769;28;20046;-85
2023/06/29 02:09:15;;;;;;;42.90;34.88;;;18.40;99.90;;;;;;4978334;28;20050;-86
2023/06/29 02:11:40;;;;;;;53.17;37.63;;;18.30;99.90;;;;;;4993320;28;20076;-85
2023/06/29 02:14:06;;;;;;;48.10;37.67;;;18.30;99.90;;;;;;4993832;28;20049;-85
2023/06/29 02:16:32;;;;;;;43.70;38.75;;;18.30;99.90;;;;;;4977346;28;20381;-85
2023/06/29 02:18:58;;;;;;;51.22;38.45;;;18.30;99.90;;;;;;5011119;28;20191;-85
2023/06/29 02:21:24;;;;;;;46.03;35.38;;;18.30;99.90;;;;;;5011244;28;20045;-85
2023/06/29 02:23:49;;;;;;;46.33;36.75;;;18.30;99.90;;;;;;4993559;28;20049;-86
2023/06/29 02:26:15;;;;;;;48.05;36.42;;;18.30;99.90;;;;;;5011444;28;20555;-85
2023/06/29 02:28:41;;;;;;;38.88;31.48;;;18.30;99.90;;;;;;4994162;28;20048;-86
2023/06/29 02:31:07;;;;;;;49.15;38.20;;;18.40;99.90;;;;;;5011190;28;20485;-86
2023/06/29 02:33:32;;;;;;;46.00;34.88;;;18.30;99.90;;;;;;5010862;28;20452;-85
2023/06/29 02:35:58;;;;;;;43.95;33.45;;;18.40;99.90;;;;;;4977086;28;20056;-85
2023/06/29 02:38:24;;;;;;;44.83;34.75;;;18.30;99.90;;;;;;5011187;28;20145;-86
2023/06/29 02:40:50;;;;;;;47.80;34.80;;;18.30;99.90;;;;;;5011970;28;20034;-86
2023/06/29 02:43:15;;;;;;;43.67;34.85;;;18.30;99.90;;;;;;4996632;28;20069;-86
2023/06/29 02:45:41;;;;;;;47.55;38.50;;;18.30;99.90;;;;;;4997553;28;20099;-86
2023/06/29 02:48:07;;;;;;;42.33;33.05;;;18.30;99.90;;;;;;4997344;28;20292;-86
2023/06/29 02:50:33;;;;;;;49.25;36.80;;;18.30;99.90;;;;;;4981599;28;20041;-86
2023/06/29 02:52:59;;;;;;;48.08;34.92;;;18.30;99.90;;;;;;4997766;28;20400;-86
2023/06/29 02:55:25;;;;;;;48.78;36.33;;;18.30;99.90;;;;;;4997922;28;20046;-86
2023/06/29 02:57:50;;;;;;;47.53;35.45;;;18.30;99.90;;;;;;5015306;28;20126;-85
2023/06/29 03:00:17;;;;;;;52.83;38.83;;;18.30;99.90;;;;;;4997756;28;20038;-86
2023/06/29 03:02:42;;;;;;;45.22;36.70;;;18.20;99.90;;;;;;4996972;28;20112;-86
2023/06/29 03:05:08;;;;;;;56.17;41.03;;;18.20;99.90;;;;;;4981223;28;20498;-86
2023/06/29 03:07:34;;;;;;;48.33;36.28;;;18.20;99.90;;;;;;4998767;28;20037;-85
2023/06/29 03:10:00;;;;;;;47.33;33.65;;;18.20;99.90;;;;;;4997965;28;20058;-85
2023/06/29 03:12:26;;;;;;;50.15;36.17;;;18.20;99.90;;;;;;4981353;28;20050;-86
2023/06/29 03:14:52;;;;;;;52.33;37.53;;;18.20;99.90;;;;;;4980883;28;20050;-86
2023/06/29 03:17:17;;;;;;;51.42;36.80;;;18.20;99.90;;;;;;4996214;28;20044;-86
2023/06/29 03:19:44;;;;;;;51.00;36.10;;;18.20;99.90;;;;;;5014038;28;20034;-86
2023/06/29 03:22:10;;;;;;;47.47;36.55;;;18.20;99.90;;;;;;4996566;28;20092;-86
2023/06/29 03:24:36;;;;;;;42.30;33.75;;;18.20;99.90;;;;;;5015028;28;20034;-86
2023/06/29 03:27:02;;;;;;;42.05;32.17;;;18.20;99.90;;;;;;4997201;28;20129;-86
2023/06/29 03:29:27;;;;;;;49.47;37.67;;;18.20;99.90;;;;;;5013989;28;20074;-86
2023/06/29 03:31:53;;;;;;;53.10;42.00;;;18.20;99.90;;;;;;4980134;28;20045;-86
2023/06/29 03:34:19;;;;;;;45.53;35.70;;;18.20;99.90;;;;;;4980730;28;20124;-86
2023/06/29 03:36:44;;;;;;;44.80;33.60;;;18.20;99.90;;;;;;4997234;28;20535;-86
2023/06/29 03:39:10;;;;;;;42.97;37.83;;;18.20;99.90;;;;;;4997109;28;20492;-86
2023/06/29 03:41:36;;;;;;;47.70;38.35;;;18.20;99.90;;;;;;5014086;28;20036;-86
2023/06/29 03:44:02;;;;;;;39.92;30.80;;;18.30;99.90;;;;;;4997027;28;20412;-86
2023/06/29 03:46:27;;;;;;;45.55;33.40;;;18.30;99.90;;;;;;4980177;28;20069;-86
2023/06/29 03:48:53;;;;;;;48.40;35.75;;;18.30;99.90;;;;;;4996795;28;20484;-86
2023/06/29 03:51:19;;;;;;;49.10;36.72;;;18.30;99.90;;;;;;4996327;28;20045;-86
2023/06/29 03:53:44;;;;;;;43.15;35.85;;;18.30;99.90;;;;;;4996495;28;20052;-86
2023/06/29 03:56:10;;;;;;;47.95;33.50;;;18.40;99.90;;;;;;4996306;28;20038;-87
2023/06/29 03:58:37;;;;;;;47.55;33.83;;;18.40;99.90;;;;;;4988553;28;20484;-86
2023/06/29 04:01:02;;;;;;;44.10;36.08;;;18.50;99.90;;;;;;4998807;28;20088;-87
2023/06/29 04:03:28;;;;;;;47.28;34.90;;;18.50;99.90;;;;;;4997058;28;20069;-86
2023/06/29 04:05:54;;;;;;;47.50;36.20;;;18.50;99.90;;;;;;4999943;28;20081;-85
2023/06/29 04:08:19;;;;;;;45.03;35.10;;;18.60;99.90;;;;;;4996026;28;20042;-86
2023/06/29 04:10:45;;;;;;;42.58;33.22;;;18.60;99.90;;;;;;4996074;28;20061;-86
2023/06/29 04:13:11;;;;;;;46.20;36.10;;;18.60;99.90;;;;;;4996871;28;20137;-87
2023/06/29 04:15:36;;;;;;;44.45;33.05;;;18.60;99.90;;;;;;4980376;28;20400;-87
2023/06/29 04:18:02;;;;;;;40.72;34.05;;;18.60;99.90;;;;;;4997752;28;20053;-87
2023/06/29 04:20:28;;;;;;;51.63;36.45;;;18.70;99.90;;;;;;4996254;28;20041;-86
2023/06/29 04:22:55;;;;;;;44.50;32.83;;;18.70;99.90;;;;;;5013562;28;20050;-86
2023/06/29 04:25:21;;;;;;;45.80;34.67;;;18.70;99.90;;;;;;5012901;28;20034;-88
2023/06/29 04:27:47;;;;;;;38.33;32.70;;;18.70;99.90;;;;;;4997047;28;20030;-87
2023/06/29 04:30:17;;;;;;;46.83;32.90;;;18.80;99.90;;;;;;4995998;28;20520;-88
2023/06/29 04:32:43;;;;;;;43.72;32.65;;;18.80;99.90;;;;;;4996142;28;20397;-87
2023/06/29 04:35:09;;;;;;;42.42;32.22;;;18.80;99.90;;;;;;5014331;28;20046;-87
2023/06/29 04:37:41;;;;;;;40.95;30.33;;;18.90;99.90;;;;;;4980849;28;20034;-87
2023/06/29 04:40:09;;;;;;;40.38;31.70;;;18.90;99.90;;;;;;4996198;28;20038;-87
2023/06/29 04:42:45;;;;;;;45.28;35.67;;;18.90;99.90;;;;;;4960165;28;20468;-87
2023/06/29 04:45:12;;;;;;;40.85;31.05;;;19.00;99.90;;;;;;4993590;28;20306;-88
2023/06/29 04:47:40;;;;;;;50.33;32.20;;;19.00;99.90;;;;;;4961523;28;20380;-89
2023/06/29 04:50:08;;;;;;;44.60;33.95;;;19.10;99.90;;;;;;4961262;28;20047;-88
2023/06/29 04:52:36;;;;;;;40.03;33.22;;;19.20;99.90;;;;;;4977933;28;20065;-89
2023/06/29 04:55:07;;;;;;;51.17;38.58;;;19.20;99.90;;;;;;4995851;28;20520;-89
2023/06/29 04:57:32;;;;;;;40.42;34.88;;;19.30;99.90;;;;;;4978687;28;20045;-88
2023/06/29 04:59:58;;;;;;;42.65;35.15;;;19.40;99.90;;;;;;4997862;28;20049;-89
2023/06/29 05:02:24;;;;;;;36.22;31.05;;;19.50;99.90;;;;;;4980596;28;20084;-88
2023/06/29 05:04:50;;;;;;;40.15;33.78;;;19.60;99.90;;;;;;4979587;28;20042;-95
2023/06/29 05:07:16;;;;;;;34.95;29.75;;;19.70;99.90;;;;;;4979592;28;20033;-87
2023/06/29 05:09:42;;;;;;;38.13;29.48;;;19.80;99.90;;;;;;5013780;28;20073;-87
2023/06/29 05:12:09;;;;;;;34.95;29.63;;;19.90;99.90;;;;;;4995125;28;20101;-87
2023/06/29 05:14:34;;;;;;;37.50;29.73;;;20.00;99.90;;;;;;4994656;28;20145;-86
2023/06/29 05:17:00;;;;;;;37.10;28.60;;;20.00;99.90;;;;;;4993964;28;20130;-86
2023/06/29 05:19:26;;;;;;;42.95;30.27;;;20.10;99.90;;;;;;5012045;28;20084;-86
2023/06/29 05:21:51;;;;;;;36.80;29.50;;;20.10;99.90;;;;;;5012553;28;20081;-85
2023/06/29 05:24:17;;;;;;;35.85;27.65;;;20.20;99.90;;;;;;4995849;28;20042;-87
2023/06/29 05:26:43;;;;;;;38.28;29.42;;;20.30;99.90;;;;;;5012602;28;20046;-86
2023/06/29 05:29:08;;;;;;;36.72;28.80;;;20.40;99.90;;;;;;4995391;28;20052;-86
2023/06/29 05:31:34;;;;;;;38.08;30.55;;;20.40;99.90;;;;;;4995515;28;20038;-87
2023/06/29 05:34:00;;;;;;;33.70;26.75;;;20.40;99.90;;;;;;4995030;28;20045;-86
2023/06/29 05:36:26;;;;;;;36.97;27.77;;;20.50;99.90;;;;;;5014265;28;20045;-86
2023/06/29 05:38:52;;;;;;;36.90;29.30;;;20.50;99.90;;;;;;4997166;28;20121;-86
2023/06/29 05:41:18;;;;;;;33.85;24.90;;;20.60;99.90;;;;;;4977245;28;20129;-87
2023/06/29 05:43:43;;;;;;;33.00;26.48;;;20.60;99.90;;;;;;5010501;28;20038;-86
2023/06/29 05:46:10;;;;;;;36.50;29.92;;;20.60;99.90;;;;;;5010395;28;20038;-86
2023/06/29 05:48:35;;;;;;;33.28;27.77;;;20.70;99.90;;;;;;4976263;28;20045;-86
2023/06/29 05:51:01;;;;;;;35.25;26.85;;;20.80;99.90;;;;;;5010091;28;20065;-87
2023/06/29 05:53:27;;;;;;;33.75;26.80;;;20.80;99.90;;;;;;5010103;28;20393;-87
2023/06/29 05:55:52;;;;;;;29.83;24.27;;;20.90;99.90;;;;;;5011780;28;20038;-89
2023/06/29 05:58:18;;;;;;;32.47;24.45;;;21.00;99.90;;;;;;4994282;28;20034;-87
2023/06/29 06:00:44;;;;;;;34.00;24.65;;;21.20;99.90;;;;;;5010573;28;20485;-87
2023/06/29 06:03:11;;;;;;;35.22;28.17;;;21.30;99.90;;;;;;4992767;28;20050;-87
2023/06/29 06:05:36;;;;;;;33.90;25.98;;;21.50;99.90;;;;;;4992542;28;20072;-87
2023/06/29 06:08:02;;;;;;;32.05;26.40;;;21.60;99.90;;;;;;4992386;28;20046;-88
2023/06/29 06:10:28;;;;;;;35.13;28.00;;;21.70;99.90;;;;;;5009426;28;20531;-87
2023/06/29 06:12:53;;;;;;;25.60;22.10;;;21.80;99.90;;;;;;4976133;28;20040;-87
2023/06/29 06:15:19;;;;;;;28.52;23.70;;;21.90;99.90;;;;;;4992694;28;20124;-87
2023/06/29 06:17:45;;;;;;;25.77;22.17;;;22.00;99.90;;;;;;4991763;28;20527;-87
2023/06/29 06:20:11;;;;;;;32.83;21.50;;;22.00;99.90;;;;;;4991962;28;20046;-87
2023/06/29 06:22:37;;;;;;;34.22;24.23;;;22.10;99.90;;;;;;4975923;28;20046;-87
2023/06/29 06:25:03;;;;;;;28.60;24.17;;;22.20;99.90;;;;;;4991700;28;20034;-87
2023/06/29 06:27:29;;;;;;;32.03;25.25;;;22.30;99.90;;;;;;4991850;28;20120;-87
2023/06/29 06:29:55;;;;;;;27.73;24.80;;;22.40;99.90;;;;;;4992353;28;20124;-87
2023/06/29 06:32:24;;;;;;;33.58;27.45;;;22.50;99.90;;;;;;4991955;28;20125;-87
2023/06/29 06:34:53;;;;;;;34.40;28.42;;;22.60;99.90;;;;;;4991884;28;20057;-87
2023/06/29 06:37:19;;;;;;;30.83;25.17;;;22.70;99.90;;;;;;4991803;28;20037;-87
2023/06/29 06:39:45;;;;;;;36.10;28.92;;;22.60;99.90;;;;;;5009109;28;20455;-87
2023/06/29 06:42:10;;;;;;;34.47;28.23;;;22.60;99.90;;;;;;4992170;28;20046;-87
2023/06/29 06:44:48;;;;;;;37.67;33.72;;;22.60;99.90;;;;;;4972311;28;20050;-88
2023/06/29 06:47:13;;;;;;;33.45;27.58;;;22.50;99.90;;;;;;4972887;28;20046;-85
2023/06/29 06:49:40;;;;;;;36.13;28.58;;;22.40;99.90;;;;;;4990393;28;20400;-85
2023/06/29 06:52:06;;;;;;;29.73;24.77;;;22.30;99.90;;;;;;4961829;28;20488;-86
2023/06/29 06:54:31;;;;;;;34.35;30.85;;;22.30;99.90;;;;;;4974600;28;20049;-86
2023/06/29 06:57:01;;;;;;;34.85;30.38;;;22.30;99.90;;;;;;4990071;28;20041;-86
2023/06/29 06:59:26;;;;;;;31.80;27.77;;;22.30;99.90;;;;;;4983598;28;20037;-86
2023/06/29 07:01:52;;;;;;;30.42;26.50;;;22.20;99.90;;;;;;5009306;28;20065;-86
2023/06/29 07:04:18;;;;;;;34.05;30.42;;;22.30;99.90;;;;;;5009250;28;20644;-86
2023/06/29 07:06:43;;;;;;;32.80;27.75;;;22.20;99.90;;;;;;4991596;28;20100;-85
2023/06/29 07:09:09;;;;;;;36.53;31.52;;;22.20;99.90;;;;;;5009584;28;20049;-86
2023/06/29 07:11:37;;;;;;;38.97;34.78;;;22.20;99.90;;;;;;5008967;28;20057;-86
2023/06/29 07:14:03;;;;;;;34.42;28.10;;;22.20;99.90;;;;;;4991738;28;20048;-86
2023/06/29 07:16:28;;;;;;;31.13;25.15;;;22.20;99.90;;;;;;4991605;28;20125;-86
2023/06/29 07:19:06;;;;;;;35.00;28.23;;;22.20;99.90;;;;;;5009422;28;20045;-86
2023/06/29 07:21:31;;;;;;;34.83;26.95;;;22.20;99.90;;;;;;4991763;28;20033;-86
2023/06/29 07:23:57;;;;;;;34.17;27.95;;;22.10;99.90;;;;;;4991276;28;20561;-86
2023/06/29 07:26:23;;;;;;;41.08;31.92;;;22.10;99.90;;;;;;5009107;28;20507;-86
2023/06/29 07:28:50;;;;;;;40.60;26.58;;;22.10;99.90;;;;;;4994082;28;20040;-86
2023/06/29 07:31:16;;;;;;;30.80;26.90;;;22.10;99.90;;;;;;4995029;28;20045;-86
2023/06/29 07:33:42;;;;;;;33.42;27.95;;;22.00;99.90;;;;;;4979405;28;20034;-86
2023/06/29 07:36:08;;;;;;;33.30;29.77;;;22.00;99.90;;;;;;4979093;28;20514;-86
2023/06/29 07:38:33;;;;;;;35.30;29.20;;;22.00;99.90;;;;;;4978827;28;20038;-86
2023/06/29 07:41:00;;;;;;;29.33;23.08;;;21.90;99.90;;;;;;4995144;28;20370;-86
2023/06/29 07:43:25;;;;;;;32.15;25.70;;;21.80;99.90;;;;;;4995027;28;20050;-86
2023/06/29 07:45:51;;;;;;;36.35;28.42;;;21.80;99.90;;;;;;4982526;28;20052;-86
2023/06/29 07:48:17;;;;;;;36.95;29.42;;;21.80;99.90;;;;;;4981633;28;20048;-86
2023/06/29 07:50:42;;;;;;;27.95;23.58;;;21.70;99.90;;;;;;5015809;28;20037;-86
2023/06/29 07:53:08;;;;;;;37.15;27.70;;;21.70;99.90;;;;;;4994807;28;20045;-87
2023/06/29 07:55:34;;;;;;;32.63;27.83;;;21.70;99.90;;;;;;4994556;28;20034;-86
2023/06/29 07:58:00;;;;;;;35.40;28.00;;;21.80;99.90;;;;;;4978652;28;20045;-85
2023/06/29 08:00:26;;;;;;;31.05;24.60;;;21.80;99.90;;;;;;4978059;28;20046;-86
2023/06/29 08:02:51;;;;;;;30.58;24.30;;;21.80;99.90;;;;;;5012364;28;20034;-86
2023/06/29 08:05:17;;;;;;;29.85;25.75;;;22.00;99.90;;;;;;4977860;28;20515;-86
2023/06/29 08:07:43;;;;;;;34.53;30.80;;;22.00;99.90;;;;;;5011152;28;20034;-86
2023/06/29 08:10:09;;;;;;;31.50;26.52;;;22.10;99.90;;;;;;4977678;28;20439;-86
2023/06/29 08:12:35;;;;;;;34.33;25.55;;;22.10;99.90;;;;;;4994141;28;20048;-86
2023/06/29 08:15:01;;;;;;;32.55;27.48;;;22.10;99.90;;;;;;4993658;28;20127;-86
2023/06/29 08:17:26;;;;;;;35.85;28.42;;;22.10;99.90;;;;;;4993820;28;20163;-86
2023/06/29 08:19:52;;;;;;;30.67;27.00;;;22.20;99.90;;;;;;4994208;28;20096;-86
2023/06/29 08:22:18;;;;;;;32.97;27.67;;;22.30;99.90;;;;;;4993602;28;20068;-86
2023/06/29 08:24:43;;;;;;;33.05;25.40;;;22.30;99.90;;;;;;4993790;28;20099;-86
2023/06/29 08:27:09;;;;;;;33.85;27.42;;;22.30;99.90;;;;;;4977664;28;20042;-87
2023/06/29 08:29:38;;;;;;;31.83;28.38;;;22.50;99.90;;;;;;4993923;28;20524;-86
2023/06/29 08:32:04;;;;;;;37.10;33.03;;;22.60;99.90;;;;;;4993606;28;20128;-86
2023/06/29 08:34:29;;;;;;;37.92;31.42;;;22.70;99.90;;;;;;4977444;28;20132;-86
2023/06/29 08:36:55;;;;;;;33.35;29.58;;;22.90;99.90;;;;;;5010789;28;20160;-86
2023/06/29 08:39:21;;;;;;;33.90;30.25;;;23.00;99.90;;;;;;5010538;28;20030;-86
2023/06/29 08:41:46;;;;;;;45.25;40.80;;;23.10;99.90;;;;;;5012000;28;20161;-86
2023/06/29 08:44:13;;;;;;;43.28;38.85;;;23.40;99.90;;;;;;4994613;28;20046;-86
2023/06/29 08:46:41;;;;;;;39.70;35.80;;;23.50;99.90;;;;;;4993528;28;20504;-87
2023/06/29 08:49:08;;;;;;;51.67;46.92;;;23.70;99.90;;;;;;5011077;28;20041;-87
2023/06/29 08:51:37;;;;;;;42.35;37.70;;;24.00;99.90;;;;;;5010627;28;20049;-87
2023/06/29 08:54:03;;;;;;;56.13;50.90;;;24.10;99.90;;;;;;4993368;28;20038;-88
2023/06/29 08:56:30;;;;;;;63.10;57.85;;;24.00;99.90;;;;;;4993440;28;20656;-87
2023/06/29 08:58:56;;;;;;;51.55;46.95;;;24.00;99.90;;;;;;4977032;28;20507;-86
2023/06/29 09:01:22;;;;;;;59.65;53.70;;;24.00;99.90;;;;;;4993481;28;20132;-86
2023/06/29 09:03:50;;;;;;;66.15;60.42;;;24.00;99.90;;;;;;4977126;28;20472;-87
2023/06/29 09:06:15;;;;;;;57.08;51.63;;;24.10;99.90;;;;;;4992532;28;20092;-87
2023/06/29 09:08:41;;;;;;;58.65;52.22;;;24.10;99.90;;;;;;4976663;28;20077;-86
2023/06/29 09:11:07;;;;;;;85.05;77.72;;;24.10;99.90;;;;;;4992763;28;20053;-86
2023/06/29 09:13:34;;;;;;;86.35;79.05;;;24.10;99.90;;;;;;4992857;28;20116;-86
2023/06/29 09:16:03;;;;;;;77.50;70.90;;;24.10;99.90;;;;;;4973076;28;20050;-86
2023/06/29 09:18:32;;;;;;;100.40;92.65;;;24.20;99.90;;;;;;4973131;28;20492;-85
2023/06/29 09:20:58;;;;;;;81.18;74.60;;;24.10;99.90;;;;;;4973108;28;20177;-86
2023/06/29 09:23:28;;;;;;;86.68;79.32;;;24.00;99.90;;;;;;4973012;28;20069;-86
2023/06/29 09:25:55;;;;;;;91.93;84.13;;;24.20;99.90;;;;;;4972962;28;20496;-86
2023/06/29 09:28:21;;;;;;;88.93;81.55;;;24.20;99.90;;;;;;4973200;28;20042;-87
2023/06/29 09:30:49;;;;;;;98.93;90.93;;;24.30;99.90;;;;;;4983543;28;20049;-86
2023/06/29 09:33:15;;;;;;;53.15;48.20;;;24.40;99.90;;;;;;5009558;28;20147;-86
2023/06/29 09:35:50;;;;;;;73.05;66.38;;;24.40;99.90;;;;;;4976031;28;20038;-87
2023/06/29 09:38:16;;;;;;;119.32;110.38;;;24.40;99.90;;;;;;5010173;28;20492;-87
2023/06/29 09:40:52;;;;;;;76.78;69.95;;;24.40;99.90;;;;;;4976463;28;20079;-87
2023/06/29 09:43:25;;;;;;;69.30;62.67;;;24.20;99.90;;;;;;4975967;28;20064;-86
2023/06/29 09:45:57;;;;;;;56.95;51.70;;;24.00;99.90;;;;;;4992242;28;20093;-86
2023/06/29 09:48:24;;;;;;;67.97;61.80;;;23.70;99.90;;;;;;4991645;28;20168;-87
2023/06/29 09:50:52;;;;;;;55.65;50.25;;;23.50;99.90;;;;;;4991667;28;20499;-86
2023/06/29 09:53:30;;;;;;;62.55;56.75;;;23.40;99.90;;;;;;4992110;28;20038;-87
2023/06/29 09:55:58;;;;;;;50.30;45.13;;;23.30;99.90;;;;;;5009768;28;20132;-87
2023/06/29 09:58:26;;;;;;;58.65;52.92;;;23.40;99.90;;;;;;4992530;28;20038;-86
2023/06/29 10:00:52;;;;;;;63.47;58.17;;;23.60;99.90;;;;;;4991892;28;20121;-87
2023/06/29 10:03:18;;;;;;;46.70;42.05;;;23.70;99.90;;;;;;5009384;28;20124;-86
2023/06/29 10:05:45;;;;;;;60.80;55.45;;;23.90;99.90;;;;;;5009794;28;20069;-86
2023/06/29 10:08:16;;;;;;;63.03;57.67;;;24.00;99.90;;;;;;4992827;28;20084;-87
2023/06/29 10:10:42;;;;;;;74.40;68.20;;;24.00;99.90;;;;;;5009702;28;20057;-86
2023/06/29 10:13:08;;;;;;;64.85;59.40;;;24.00;99.90;;;;;;5009682;28;20112;-87
2023/06/29 10:15:36;;;;;;;89.47;81.93;;;23.90;99.90;;;;;;4991978;28;20038;-86
2023/06/29 10:18:09;;;;;;;65.32;59.47;;;23.90;99.90;;;;;;4991721;28;20467;-87
2023/06/29 10:20:39;;;;;;;50.47;45.63;;;23.80;99.90;;;;;;5010497;28;20046;-86
2023/06/29 10:23:07;;;;;;;56.38;51.17;;;23.70;99.90;;;;;;5012798;28;20447;-86
2023/06/29 10:25:37;;;;;;;67.20;60.92;;;23.50;99.90;;;;;;4995383;28;20042;-86
2023/06/29 10:28:03;;;;;;;63.22;57.35;;;23.40;99.90;;;;;;4979265;28;20045;-86
2023/06/29 10:30:42;;;;;;;63.78;58.03;;;23.30;99.90;;;;;;4995597;28;20091;-86
2023/06/29 10:33:09;;;;;;;47.78;43.08;;;23.20;99.90;;;;;;4995859;28;20042;-86
2023/06/29 10:35:36;;;;;;;57.95;52.05;;;23.10;99.90;;;;;;4979097;28;20353;-85
2023/06/29 10:38:11;;;;;;;48.00;43.15;;;23.10;99.90;;;;;;5012497;28;20117;-85
2023/06/29 10:40:48;;;;;;;41.17;36.42;;;23.00;99.90;;;;;;5012403;28;20042;-85
2023/06/29 10:43:14;;;;;;;47.45;42.72;;;23.00;99.90;;;;;;4978652;28;20048;-86
2023/06/29 10:45:40;;;;;;;41.33;37.08;;;22.90;99.90;;;;;;4994851;28;20046;-86
2023/06/29 10:48:08;;;;;;;37.05;33.13;;;22.90;99.90;;;;;;4995361;28;20129;-86
2023/06/29 10:50:45;;;;;;;42.50;38.08;;;22.90;99.90;;;;;;4978606;28;20046;-86
2023/06/29 10:53:15;;;;;;;35.17;31.38;;;22.90;99.90;;;;;;4994715;28;20052;-86
2023/06/29 10:55:43;;;;;;;38.08;33.50;;;22.90;99.90;;;;;;4977529;28;20073;-86
2023/06/29 10:58:49;;;;;;;35.63;31.55;;;22.90;99.90;;;;;;4978295;28;20050;-85
2023/06/29 11:01:14;;;;;;;40.35;36.13;;;23.00;99.90;;;;;;4892902;29;20036;-85
2023/06/29 11:03:40;;;;;;;37.17;33.25;;;23.00;99.90;;;;;;4881318;29;20056;-85
2023/06/29 11:06:07;;;;;;;38.90;34.67;;;23.10;99.90;;;;;;4897630;29;20466;-86
2023/06/29 11:08:32;;;;;;;42.97;38.58;;;23.20;99.90;;;;;;4881595;29;20091;-85
2023/06/29 11:11:14;;;;;;;45.63;41.22;;;23.40;99.90;;;;;;4880884;29;20057;-86
2023/06/29 11:13:41;;;;;;;58.15;53.03;;;23.80;99.90;;;;;;4866449;29;20451;-85
2023/06/29 11:16:07;;;;;;;65.60;57.15;;;24.20;99.90;;;;;;4914181;29;20092;-87
2023/06/29 11:18:32;;;;;;;110.80;102.63;;;24.60;99.90;;;;;;4884441;29;20048;-86
2023/06/29 11:21:01;;;;;;;49.95;45.13;;;24.80;99.90;;;;;;4899596;29;20582;-86
2023/06/29 11:23:26;;;;;;;126.03;116.78;;;25.00;99.90;;;;;;4899707;29;20190;-86
2023/06/29 11:25:52;;;;;;;122.28;113.57;;;25.20;99.90;;;;;;4915000;29;20052;-86
2023/06/29 11:28:18;;;;;;;105.95;98.00;;;25.30;99.90;;;;;;4913681;29;20275;-85
2023/06/29 11:30:44;;;;;;;123.38;114.45;;;25.60;99.90;;;;;;4914985;29;20080;-86
2023/06/29 11:33:12;;;;;;;117.75;109.13;;;25.70;99.90;;;;;;4898918;29;20052;-85
2023/06/29 11:35:42;;;;;;;113.13;104.53;;;26.00;99.90;;;;;;4935388;29;20059;-86
2023/06/29 11:38:08;;;;;;;115.57;106.78;;;26.10;99.90;;;;;;4956203;29;20066;-85
2023/06/29 11:40:33;;;;;;;176.98;164.23;;;26.20;99.90;;;;;;4954204;29;20043;-86
2023/06/29 11:42:59;;;;;;;124.53;114.50;;;26.20;99.90;;;;;;4937910;29;20074;-85
2023/06/29 11:45:25;;;;;;;275.27;255.88;;;26.10;99.90;;;;;;4955019;29;20403;-86
2023/06/29 11:47:54;;;;;;;200.27;185.18;;;26.10;99.90;;;;;;4953895;29;20105;-85
2023/06/29 11:50:20;;;;;;;274.40;254.27;;;25.90;99.90;;;;;;4953238;29;20053;-85
2023/06/29 11:52:46;;;;;;;296.52;275.00;;;25.80;99.90;;;;;;4955494;29;20040;-86
2023/06/29 11:55:13;;;;;;;238.70;220.88;;;25.80;99.90;;;;;;4937425;29;20043;-86
2023/06/29 11:57:40;;;;;;;319.52;295.08;;;25.90;99.90;;;;;;4966339;28;20454;-86
2023/06/29 12:00:29;;;;;;;315.95;292.48;;;26.00;99.90;;;;;;4972454;28;20445;-86
2023/06/29 12:02:54;;;;;;;358.77;332.08;;;26.00;99.90;;;;;;4973120;28;20038;-86
2023/06/29 12:05:26;;;;;;;421.10;389.70;;;26.10;99.90;;;;;;4973361;28;20057;-86
2023/06/29 12:07:51;;;;;;;230.38;212.48;;;26.00;99.90;;;;;;4957162;28;20038;-86
2023/06/29 12:10:22;;;;;;;228.48;210.95;;;26.00;99.90;;;;;;4980943;28;20054;-85
2023/06/29 12:12:55;;;;;;;326.02;301.08;;;25.90;99.90;;;;;;4992611;28;20089;-86
2023/06/29 12:15:24;;;;;;;311.52;287.48;;;25.90;99.90;;;;;;4993540;28;20050;-85
2023/06/29 12:17:50;;;;;;;435.55;402.98;;;25.90;99.90;;;;;;4992493;28;20515;-86
2023/06/29 12:20:17;;;;;;;354.55;327.63;;;26.00;99.90;;;;;;4993570;28;20038;-86
2023/06/29 12:22:44;;;;;;;417.55;385.30;;;26.20;99.90;;;;;;4977642;28;20042;-86
2023/06/29 12:25:12;;;;;;;279.38;258.10;;;26.40;99.90;;;;;;4995860;28;20038;-85